Hauptseite
METAR-TAF:

METAR-TAF

Flughäfen :

Norwich International Airport

Norwich, England

Breite: 52-38N, Länge: 001-18E, Höhe: 14 m

Beobachtung

Neuester Wetterbericht von vor 10 Minuten, um 01:50 UTC
Wind 6 kt aus Süd
Temperatur 14°C
Luftfeuchtigkeit 100%
Luftdruck 1007 hPa
Sichtweite 10 km oder mehr

METAR: EGSH 230150Z AUTO 17006KT 9999 NCD 14/14 Q1007

Zeit: 03:00 (02:00 UTC)

Prognose

Neuester Wetterbericht von vor 6 Stunden und 2 Minuten, um 19:58 UTC
Gültige Prognose vom 22 um 21 UTC bis 22 um 24 UTC
Wind 9 kt aus Süd/Südwest
Sichtweite 10 km oder mehr
Leicht bewölkt in der Höhe von 800 ft
Aufgelockert bewölkt in der Höhe von 2500 ft
Wahrscheinlichkeit 30%
vom 22 um 21 UTC bis 22 um 24 UTC
Sichtweite: 8000 m

TAF: EGSH 221958Z 2221/2224 20009KT 9999 FEW008 SCT025 PROB30 2221/2224 8000

Wetterbeobachtungen und Prognosen von mehr als 4000 Flughäfen (METAR und TAF Bericht).

Die verfügbaren Stationen werden durch gelbe und rote Markierungen auf der Karte dargestellt.

Führen Sie die Maus auf sie, um den Namen der Station zu sehen.

Darauf klicken, um die Beobachtung von Wetterbeobachtungen und Prognosen zu sehen.

Um die Karte zu ändern : klicken Sie auf den grünen Tasten mit einem schwarzen Kreuz Zum Vergrößern, auf den grünen Button mit einem Gedankenstrich zu verkleinern, oder auf die grünen Pfeile für benachbarte Karten.


METAR-TAF: